createdAt,value
2023-01-09T00:01:34.228Z,8.2
2023-01-09T00:03:36.007Z,8.1
2023-01-09T00:05:37.715Z,8.1
2023-01-09T00:07:42.652Z,8.2
2023-01-09T00:09:44.350Z,8.2
2023-01-09T00:13:47.815Z,8.2
2023-01-09T00:15:49.551Z,8.2
2023-01-09T00:17:51.252Z,8
2023-01-09T00:21:57.911Z,8
2023-01-09T00:30:04.793Z,8.1
2023-01-09T00:32:06.521Z,8
2023-01-09T00:34:08.221Z,8
2023-01-09T00:36:13.208Z,8
2023-01-09T00:38:14.900Z,7.9
2023-01-09T00:40:16.619Z,7.9
2023-01-09T00:42:18.317Z,8
2023-01-09T00:44:20.045Z,8
2023-01-09T00:46:21.822Z,7.9
2023-01-09T00:48:23.481Z,8
2023-01-09T00:50:28.430Z,7.9
2023-01-09T00:52:30.129Z,7.8
2023-01-09T00:54:31.853Z,7.8
2023-01-09T00:55:34.334Z,7.7
2023-01-09T00:57:36.044Z,7.7
2023-01-09T00:59:37.745Z,7.8
2023-01-09T01:01:39.559Z,7.7
2023-01-09T01:03:44.375Z,7.7
2023-01-09T01:05:46.110Z,7.7
2023-01-09T01:07:47.808Z,7.7
2023-01-09T01:09:49.531Z,7.6
2023-01-09T01:11:51.217Z,7.6
2023-01-09T01:13:52.933Z,7.5
2023-01-09T01:15:54.617Z,7.4
2023-01-09T01:24:04.649Z,7.4
2023-01-09T01:26:06.367Z,7.4
2023-01-09T01:30:09.745Z,7.2
2023-01-09T01:32:14.667Z,7.3
2023-01-09T01:34:16.375Z,7.2
2023-01-09T01:36:18.063Z,7.2
2023-01-09T01:38:19.786Z,7.1
2023-01-09T01:40:21.420Z,7.1
2023-01-09T01:42:23.114Z,7.1
2023-01-09T01:44:24.830Z,7
2023-01-09T01:46:29.758Z,7
2023-01-09T01:48:31.428Z,7
2023-01-09T01:50:33.163Z,7
2023-01-09T01:51:35.579Z,6.9
2023-01-09T01:59:45.518Z,6.9
2023-01-09T02:01:47.289Z,6.7
2023-01-09T02:03:48.898Z,6.8
2023-01-09T02:05:50.572Z,6.7
2023-01-09T02:07:52.254Z,6.8
2023-01-09T02:09:53.926Z,6.6
2023-01-09T02:11:55.605Z,6.6
2023-01-09T02:14:00.523Z,6.6
2023-01-09T02:16:02.232Z,6.7
2023-01-09T02:18:03.856Z,6.6
2023-01-09T02:20:05.505Z,6.8
2023-01-09T02:22:07.205Z,6.7
2023-01-09T02:26:10.540Z,6.8
2023-01-09T02:30:17.098Z,6.8
2023-01-09T02:32:18.811Z,6.7
2023-01-09T02:34:20.452Z,6.8
2023-01-09T02:36:22.143Z,6.9
2023-01-09T02:38:23.792Z,6.7
2023-01-09T02:40:25.490Z,6.8
2023-01-09T02:42:30.432Z,6.6
2023-01-09T02:44:32.080Z,6.8
2023-01-09T02:46:33.753Z,6.7
2023-01-09T02:49:02.341Z,6.6
2023-01-09T02:53:05.726Z,6.6
2023-01-09T02:55:10.631Z,6.7
2023-01-09T02:57:12.270Z,6.6
2023-01-09T02:59:13.931Z,6.6
2023-01-09T03:01:15.712Z,6.6
2023-01-09T03:03:17.304Z,6.7
2023-01-09T03:05:18.961Z,6.6
2023-01-09T03:07:20.625Z,6.7
2023-01-09T03:09:25.646Z,6.6
2023-01-09T03:11:27.218Z,6.7
2023-01-09T03:13:28.903Z,6.6
2023-01-09T03:17:32.231Z,6.6
2023-01-09T03:23:40.478Z,6.5
2023-01-09T03:25:42.143Z,6.4
2023-01-09T03:27:43.840Z,6.4
2023-01-09T03:29:45.489Z,6.4
2023-01-09T03:31:47.220Z,6.3
2023-01-09T03:33:48.817Z,6.3
2023-01-09T03:35:50.466Z,6.2
2023-01-09T03:37:55.371Z,6.3
2023-01-09T03:39:57.035Z,6.3
2023-01-09T03:41:58.711Z,6.3
2023-01-09T03:45:02.796Z,6.3
2023-01-09T03:47:04.463Z,6.3
2023-01-09T03:49:06.143Z,6.3
2023-01-09T03:51:11.031Z,6.2
2023-01-09T03:53:12.695Z,6.3
2023-01-09T03:57:15.999Z,6.1
2023-01-09T03:59:17.665Z,6.2
2023-01-09T04:01:19.450Z,6.2
2023-01-09T04:03:21.001Z,6.2
2023-01-09T04:05:25.878Z,6.3
2023-01-09T04:07:27.621Z,6.2
2023-01-09T04:09:29.187Z,6.3
2023-01-09T04:11:30.834Z,6.1
2023-01-09T04:13:32.495Z,6.2
2023-01-09T04:15:34.146Z,6.3
2023-01-09T04:17:35.814Z,6.2
2023-01-09T04:19:40.693Z,6
2023-01-09T04:21:42.390Z,6.1
2023-01-09T04:23:44.014Z,6.2
2023-01-09T04:27:49.286Z,6.2
2023-01-09T04:33:55.507Z,6.1
2023-01-09T04:35:57.188Z,6.1
2023-01-09T04:39:01.275Z,6.1
2023-01-09T04:41:02.931Z,6.1
2023-01-09T04:43:04.563Z,6
2023-01-09T04:45:06.225Z,6
2023-01-09T04:47:11.140Z,6
2023-01-09T04:49:12.776Z,6
2023-01-09T04:51:14.428Z,6
2023-01-09T04:53:16.097Z,5.9
2023-01-09T05:01:26.044Z,5.9
2023-01-09T05:03:27.560Z,5.8
2023-01-09T05:05:29.212Z,6
2023-01-09T05:07:30.854Z,6.1
2023-01-09T05:09:32.504Z,6
2023-01-09T05:11:34.243Z,6
2023-01-09T05:13:35.775Z,6
2023-01-09T05:15:40.695Z,5.9
2023-01-09T05:17:42.323Z,6.1
2023-01-09T05:19:43.962Z,6.1
2023-01-09T05:21:45.595Z,6.1
2023-01-09T05:23:47.242Z,6.2
2023-01-09T05:25:48.889Z,6.3
2023-01-09T05:27:50.554Z,6.2
2023-01-09T05:29:56.965Z,6.3
2023-01-09T05:31:58.599Z,6.2
2023-01-09T05:34:00.242Z,6.3
2023-01-09T05:35:02.698Z,6.3
2023-01-09T05:37:04.350Z,6.3
2023-01-09T05:39:05.986Z,6.4
2023-01-09T05:41:07.655Z,6.3
2023-01-09T05:43:12.562Z,6.3
2023-01-09T05:45:14.198Z,6.3
2023-01-09T05:47:15.847Z,6.4
2023-01-09T05:55:22.474Z,6.2
2023-01-09T05:57:27.391Z,6.3
2023-01-09T05:59:29.027Z,6.2
2023-01-09T06:01:30.760Z,6.2
2023-01-09T06:03:32.347Z,6.3
2023-01-09T06:05:34.025Z,6.3
2023-01-09T06:07:35.707Z,6.3
2023-01-09T06:09:37.325Z,6.5
2023-01-09T06:11:42.230Z,6.4
2023-01-09T06:13:43.915Z,6.5
2023-01-09T06:15:45.589Z,6.6
2023-01-09T06:23:52.211Z,6.5
2023-01-09T06:32:28.991Z,6.6
2023-01-09T06:34:30.669Z,6.5
2023-01-09T06:36:32.322Z,6.6
2023-01-09T06:38:37.211Z,6.6
2023-01-09T06:40:38.887Z,6.6
2023-01-09T06:42:40.577Z,6.7
2023-01-09T06:44:42.218Z,6.8
2023-01-09T06:46:43.898Z,6.6
2023-01-09T06:48:45.572Z,6.7
2023-01-09T06:50:47.241Z,6.6
2023-01-09T06:52:52.146Z,6.8
2023-01-09T06:54:53.838Z,6.8
2023-01-09T06:56:55.489Z,6.8
2023-01-09T06:58:57.160Z,6.7
2023-01-09T07:00:58.945Z,6.8
2023-01-09T07:05:02.188Z,6.9
2023-01-09T07:07:07.087Z,6.9
2023-01-09T07:13:12.156Z,6.9
2023-01-09T07:15:13.849Z,6.9
2023-01-09T07:17:15.520Z,7
2023-01-09T07:23:23.841Z,7
2023-01-09T07:25:25.512Z,7
2023-01-09T07:26:27.953Z,7
2023-01-09T07:28:29.635Z,7.1
2023-01-09T07:30:31.342Z,7.2
2023-01-09T07:32:33.045Z,7.1
2023-01-09T07:34:37.981Z,7.2
2023-01-09T07:36:39.650Z,7.2
2023-01-09T07:38:41.332Z,7.3
2023-01-09T07:40:43.164Z,7.1
2023-01-09T07:42:44.744Z,7.3
2023-01-09T07:44:46.433Z,7.2
2023-01-09T07:46:48.104Z,7.1
2023-01-09T07:48:53.030Z,7.1
2023-01-09T07:50:54.716Z,7.2
2023-01-09T07:52:56.415Z,7.2
2023-01-09T07:54:58.106Z,7.2
2023-01-09T07:56:59.776Z,7.3
2023-01-09T07:59:01.477Z,7.3
2023-01-09T08:01:03.255Z,7.2
2023-01-09T08:05:09.791Z,7.3
2023-01-09T08:07:11.477Z,7.3
2023-01-09T08:09:13.175Z,7.2
2023-01-09T08:11:14.897Z,7.2
2023-01-09T08:13:16.576Z,7.2
2023-01-09T08:15:18.262Z,7.2
2023-01-09T08:17:24.752Z,7.2
2023-01-09T08:19:24.891Z,7.2
2023-01-09T08:21:26.585Z,7.3
2023-01-09T08:26:32.430Z,7.3
2023-01-09T08:28:34.118Z,7.2
2023-01-09T08:30:39.032Z,7.2
2023-01-09T08:32:40.728Z,7.3
2023-01-09T08:34:42.518Z,7.3
2023-01-09T08:36:44.134Z,7.2
2023-01-09T08:38:45.856Z,7.2
2023-01-09T08:40:47.564Z,7.1
2023-01-09T08:42:49.337Z,7.2
2023-01-09T08:44:54.186Z,7.2
2023-01-09T08:46:55.849Z,7.3
2023-01-09T08:48:57.543Z,7.2
2023-01-09T08:50:59.234Z,7.3
2023-01-09T08:53:00.922Z,7.4
2023-01-09T08:55:02.594Z,7.3
2023-01-09T08:57:04.334Z,7.5
2023-01-09T08:59:09.240Z,7.3
2023-01-09T09:01:11.017Z,7.3
2023-01-09T09:03:12.612Z,7.3
2023-01-09T09:09:17.699Z,7.1
2023-01-09T09:11:19.368Z,7.2
2023-01-09T09:15:26.020Z,7.1
2023-01-09T09:17:27.716Z,7.2
2023-01-09T09:20:31.856Z,7.1
2023-01-09T09:22:33.561Z,7.3
2023-01-09T09:24:35.241Z,7.2
2023-01-09T09:26:40.161Z,7.2
2023-01-09T09:28:41.874Z,7.2
2023-01-09T09:30:43.562Z,7.2
2023-01-09T09:32:45.248Z,7.2
2023-01-09T09:34:46.926Z,7.3
2023-01-09T09:36:48.690Z,7.2
2023-01-09T09:38:50.309Z,7.3
2023-01-09T09:40:55.222Z,7.2
2023-01-09T09:42:56.901Z,7.3
2023-01-09T09:44:58.612Z,7.3
2023-01-09T09:47:00.304Z,7.4
2023-01-09T09:49:02.001Z,7.3
2023-01-09T09:51:03.694Z,7.4
2023-01-09T09:53:05.373Z,7.3
2023-01-09T09:55:10.299Z,7.4
2023-01-09T09:57:12.011Z,7.4
2023-01-09T10:01:15.370Z,7.4
2023-01-09T10:03:23.231Z,7.7
2023-01-09T10:05:18.757Z,7.6
2023-01-09T10:07:20.457Z,7.6
2023-01-09T10:09:25.376Z,7.6
2023-01-09T10:11:27.064Z,7.7
2023-01-09T10:13:30.296Z,7.7
2023-01-09T10:17:59.075Z,7.6
2023-01-09T10:20:00.750Z,7.7
2023-01-09T10:22:05.665Z,7.7
2023-01-09T10:24:07.377Z,7.6
2023-01-09T10:26:09.100Z,7.6
2023-01-09T10:28:10.770Z,7.7
2023-01-09T10:30:12.468Z,7.7
2023-01-09T10:32:14.132Z,7.8
2023-01-09T10:34:15.862Z,7.7
2023-01-09T10:36:20.849Z,7.8
2023-01-09T10:38:22.468Z,7.7
2023-01-09T10:40:24.200Z,7.8
2023-01-09T10:42:25.901Z,7.8
2023-01-09T10:44:27.584Z,7.8
2023-01-09T10:46:29.345Z,7.6
2023-01-09T10:48:30.973Z,7.7
2023-01-09T10:50:35.938Z,7.6
2023-01-09T10:52:37.614Z,7.6
2023-01-09T10:54:39.397Z,7.6
2023-01-09T10:56:40.999Z,7.6
2023-01-09T10:58:42.712Z,7.4
2023-01-09T11:00:44.406Z,7.6
2023-01-09T11:02:46.115Z,7.5
2023-01-09T11:04:51.024Z,7.5
2023-01-09T11:06:52.717Z,7.4
2023-01-09T11:08:54.427Z,7.5
2023-01-09T11:09:57.047Z,7.6
2023-01-09T11:11:58.572Z,7.7
2023-01-09T11:14:00.298Z,7.8
2023-01-09T11:16:02.101Z,7.9
2023-01-09T11:18:06.915Z,8.1
2023-01-09T11:26:15.208Z,8.2
2023-01-09T11:28:16.913Z,8.1
2023-01-09T11:30:18.803Z,8.1
2023-01-09T11:32:23.543Z,8.2
2023-01-09T11:34:25.276Z,8.2
2023-01-09T11:36:27.001Z,8.2
2023-01-09T11:42:32.091Z,8.4
2023-01-09T11:46:38.789Z,8.7
2023-01-09T11:48:40.424Z,8.8
2023-01-09T11:52:43.868Z,8.8
2023-01-09T11:54:45.562Z,8.9
2023-01-09T11:56:47.258Z,8.9
2023-01-09T11:58:48.985Z,8.9
2023-01-09T12:00:53.930Z,8.9
2023-01-09T12:02:55.692Z,8.9
2023-01-09T12:04:57.358Z,9
2023-01-09T12:05:59.946Z,9.1
2023-01-09T12:08:01.539Z,9.1
2023-01-09T12:10:03.261Z,9.1
2023-01-09T12:12:04.956Z,9
2023-01-09T12:14:09.929Z,9
2023-01-09T12:16:11.691Z,9
2023-01-09T12:18:13.389Z,9.1
2023-01-09T12:20:15.135Z,9.3
2023-01-09T12:22:16.827Z,9.5
2023-01-09T12:24:18.547Z,9.6
2023-01-09T12:26:20.258Z,9.5
2023-01-09T12:28:25.226Z,9.5
2023-01-09T12:30:27.006Z,9.6
2023-01-09T12:32:28.718Z,9.5
2023-01-09T12:34:30.436Z,9.8
2023-01-09T12:38:33.917Z,10.8
2023-01-09T12:40:35.649Z,10.8
2023-01-09T12:42:40.631Z,10.5
2023-01-09T12:44:42.383Z,10.4
2023-01-09T12:46:44.113Z,10.3
2023-01-09T12:48:45.888Z,11.2
2023-01-09T12:50:47.577Z,11.8
2023-01-09T12:52:49.379Z,11.8
2023-01-09T12:54:51.123Z,12.1
2023-01-09T12:56:56.215Z,10.7
2023-01-09T12:58:57.828Z,10.5
2023-01-09T13:00:59.630Z,10.4
2023-01-09T13:02:02.222Z,9.7
2023-01-09T13:04:03.811Z,9.6
2023-01-09T13:06:05.560Z,9.4
2023-01-09T13:08:07.302Z,9.2
2023-01-09T13:10:12.292Z,8.9
2023-01-09T13:12:14.064Z,9
2023-01-09T13:14:15.783Z,9
2023-01-09T13:16:17.594Z,8.9
2023-01-09T13:18:19.252Z,8.8
2023-01-09T13:20:21.062Z,8.8
2023-01-09T13:22:22.774Z,8.8
2023-01-09T13:24:27.757Z,8.8
2023-01-09T13:26:29.485Z,8.8
2023-01-09T13:28:31.234Z,8.8
2023-01-09T13:36:38.288Z,8.6
2023-01-09T13:38:43.192Z,8.5
2023-01-09T13:44:48.352Z,8.3
2023-01-09T13:46:50.065Z,8.3
2023-01-09T13:52:58.492Z,8.4
2023-01-09T13:55:00.268Z,8.3
2023-01-09T13:57:01.943Z,8.3
2023-01-09T13:59:30.577Z,8.2
2023-01-09T14:01:32.301Z,8.3
2023-01-09T14:03:34.033Z,8.2
2023-01-09T14:05:38.976Z,8.2
2023-01-09T14:07:40.704Z,8.2
2023-01-09T14:09:42.418Z,8.2
2023-01-09T14:11:44.146Z,8.2
2023-01-09T14:13:45.847Z,8.3
2023-01-09T14:15:47.563Z,8.3
2023-01-09T14:17:49.273Z,8.3
2023-01-09T14:19:54.249Z,8.3
2023-01-09T14:21:55.921Z,8.3
2023-01-09T14:24:02.158Z,8.3
2023-01-09T14:25:59.384Z,8.3
2023-01-09T14:28:01.074Z,8.5
2023-01-09T14:32:05.238Z,8.5
2023-01-09T14:34:23.411Z,8.3
2023-01-09T14:36:11.292Z,8.4
2023-01-09T14:38:12.939Z,8.3
2023-01-09T14:40:14.621Z,8.4
2023-01-09T14:42:16.382Z,8.3
2023-01-09T14:44:18.068Z,8.5
2023-01-09T14:46:19.838Z,8.5
2023-01-09T14:48:24.752Z,8.3
2023-01-09T14:52:28.165Z,8.3
2023-01-09T14:53:30.637Z,8.1
2023-01-09T14:55:32.347Z,8.1
2023-01-09T14:57:34.168Z,8.2
2023-01-09T14:59:35.748Z,8.1
2023-01-09T15:01:40.708Z,8
2023-01-09T15:03:42.416Z,8.2
2023-01-09T15:07:45.849Z,7.9
2023-01-09T15:09:47.563Z,8
2023-01-09T15:11:49.235Z,7.9
2023-01-09T15:13:50.939Z,7.9
2023-01-09T15:17:57.572Z,7.8
2023-01-09T15:19:59.325Z,7.9
2023-01-09T15:22:00.975Z,7.8
2023-01-09T15:24:02.687Z,7.8
2023-01-09T15:30:10.995Z,7.8
2023-01-09T15:32:12.718Z,7.8
2023-01-09T15:34:14.403Z,7.7
2023-01-09T15:38:17.814Z,7.6
2023-01-09T15:40:19.481Z,7.7
2023-01-09T15:42:21.185Z,7.6
2023-01-09T15:46:27.791Z,7.7
2023-01-09T15:49:31.944Z,7.6
2023-01-09T15:51:33.616Z,7.5
2023-01-09T15:53:35.311Z,7.5
2023-01-09T15:55:37.004Z,7.6
2023-01-09T15:57:41.921Z,7.5
2023-01-09T15:59:43.623Z,7.6
2023-01-09T16:01:45.307Z,7.6
2023-01-09T16:03:46.979Z,7.5
2023-01-09T16:05:48.654Z,7.5
2023-01-09T16:07:50.320Z,7.3
2023-01-09T16:09:52.031Z,7.3
2023-01-09T16:11:56.927Z,7.4
2023-01-09T16:13:58.590Z,7.4
2023-01-09T16:16:00.310Z,7.5
2023-01-09T16:20:03.712Z,7.4
2023-01-09T16:22:05.383Z,7.4
2023-01-09T16:24:07.057Z,7.5
2023-01-09T16:26:11.979Z,7.3
2023-01-09T16:28:13.673Z,7.4
2023-01-09T16:30:15.329Z,7.4
2023-01-09T16:32:17.061Z,7.3
2023-01-09T16:34:18.717Z,7.4
2023-01-09T16:36:20.416Z,7.3
2023-01-09T16:38:22.089Z,7.3
2023-01-09T16:40:26.981Z,7.3
2023-01-09T16:42:28.684Z,7.2
2023-01-09T16:44:30.369Z,7.2
2023-01-09T16:49:36.211Z,7.1
2023-01-09T16:51:37.899Z,7
2023-01-09T16:57:46.182Z,7.1
2023-01-09T16:59:47.879Z,7
2023-01-09T17:01:49.529Z,7.1
2023-01-09T17:03:51.193Z,7
2023-01-09T17:05:52.892Z,7.1
2023-01-09T17:07:57.809Z,7.1
2023-01-09T17:09:59.504Z,7
2023-01-09T17:12:02.710Z,7.1
2023-01-09T17:14:04.355Z,7.1
2023-01-09T17:16:06.132Z,7
2023-01-09T17:18:07.711Z,7
2023-01-09T17:20:09.392Z,6.9
2023-01-09T17:22:14.326Z,6.9
2023-01-09T17:24:15.998Z,6.9
2023-01-09T17:26:17.690Z,6.9
2023-01-09T17:28:19.358Z,7
2023-01-09T17:30:21.203Z,7
2023-01-09T17:32:22.726Z,7
2023-01-09T17:34:24.443Z,7.1
2023-01-09T17:36:29.312Z,7.2
2023-01-09T17:38:31.001Z,7.1
2023-01-09T17:40:32.681Z,7.2
2023-01-09T17:43:01.340Z,7.2
2023-01-09T17:45:03.030Z,7.2
2023-01-09T17:47:04.719Z,7.2
2023-01-09T17:49:09.641Z,7.3
2023-01-09T17:51:11.308Z,7.4
2023-01-09T17:53:12.989Z,7.2
2023-01-09T17:55:14.702Z,7.4
2023-01-09T17:57:16.388Z,7.3
2023-01-09T17:59:18.080Z,7.3
2023-01-09T18:01:19.830Z,7.2
2023-01-09T18:03:24.664Z,7.4
2023-01-09T18:05:26.376Z,7.3
2023-01-09T18:07:28.084Z,7.3
2023-01-09T18:09:29.767Z,7.2
2023-01-09T18:11:31.446Z,7.1
2023-01-09T18:13:33.120Z,7
2023-01-09T18:15:34.833Z,7
2023-01-09T18:17:39.750Z,6.9
2023-01-09T18:19:41.442Z,7
2023-01-09T18:21:43.120Z,7
2023-01-09T18:23:44.826Z,7
2023-01-09T18:27:48.174Z,6.9
2023-01-09T18:29:49.893Z,6.8
2023-01-09T18:31:54.815Z,6.8
2023-01-09T18:33:56.625Z,6.8
2023-01-09T18:35:58.120Z,6.9
2023-01-09T18:39:02.273Z,6.9
2023-01-09T18:41:03.944Z,7
2023-01-09T18:43:05.637Z,7
2023-01-09T18:45:10.922Z,6.8
2023-01-09T18:47:12.241Z,6.8
2023-01-09T18:49:13.934Z,6.7
2023-01-09T18:51:15.616Z,6.7
2023-01-09T18:53:17.298Z,6.8
2023-01-09T18:55:18.975Z,6.7
2023-01-09T18:57:20.639Z,6.8
2023-01-09T18:59:25.564Z,6.8
2023-01-09T19:01:27.326Z,7
2023-01-09T19:05:30.621Z,7
2023-01-09T19:07:32.272Z,7
2023-01-09T19:09:33.953Z,7.1
2023-01-09T19:11:35.663Z,7
2023-01-09T19:15:42.231Z,7
2023-01-09T19:17:43.905Z,7
2023-01-09T19:19:45.607Z,7
2023-01-09T19:21:47.280Z,7
2023-01-09T19:23:48.932Z,7.1
2023-01-09T19:27:55.535Z,7.2
2023-01-09T19:29:57.198Z,7.1
2023-01-09T19:31:58.993Z,7.1
2023-01-09T19:33:01.340Z,7.3
2023-01-09T19:35:03.029Z,7.1
2023-01-09T19:37:04.984Z,7.2
2023-01-09T19:39:06.369Z,7.1
2023-01-09T19:41:11.311Z,7.1
2023-01-09T19:43:12.980Z,7.1
2023-01-09T19:45:14.699Z,7.2
2023-01-09T19:47:16.379Z,7.1
2023-01-09T19:51:19.743Z,7.1
2023-01-09T19:53:21.414Z,7.3
2023-01-09T19:55:26.346Z,7.2
2023-01-09T19:57:28.029Z,7.3
2023-01-09T19:59:29.705Z,7.3
2023-01-09T20:01:31.508Z,7.2
2023-01-09T20:03:33.108Z,7.3
2023-01-09T20:05:34.789Z,7.1
2023-01-09T20:07:36.470Z,7.3
2023-01-09T20:09:41.377Z,7.3
2023-01-09T20:11:43.078Z,7.3
2023-01-09T20:13:44.771Z,7.2
2023-01-09T20:15:46.455Z,7.2
2023-01-09T20:17:48.154Z,7.1
2023-01-09T20:19:49.828Z,7.2
2023-01-09T20:21:51.516Z,7.2
2023-01-09T20:23:56.481Z,7.1
2023-01-09T20:25:59.880Z,7.1
2023-01-09T20:27:59.927Z,7
2023-01-09T20:29:02.280Z,6.9
2023-01-09T20:31:03.951Z,6.9
2023-01-09T20:33:05.757Z,7
2023-01-09T20:35:07.347Z,6.9
2023-01-09T20:37:12.314Z,6.8
2023-01-09T20:39:13.933Z,6.9
2023-01-09T20:41:15.615Z,6.8
2023-01-09T20:43:17.296Z,6.8
2023-01-09T20:45:18.991Z,6.7
2023-01-09T20:47:20.658Z,6.8
2023-01-09T20:51:27.260Z,6.5
2023-01-09T20:53:28.934Z,6.6
2023-01-09T20:55:30.656Z,6.7
2023-01-09T20:57:32.287Z,6.8
2023-01-09T20:59:33.955Z,6.8
2023-01-09T21:01:35.607Z,6.9
2023-01-09T21:03:37.434Z,6.8
2023-01-09T21:05:42.218Z,6.9
2023-01-09T21:07:43.857Z,6.9
2023-01-09T21:09:45.553Z,6.8
2023-01-09T21:11:47.229Z,6.8
2023-01-09T21:13:48.913Z,6.8
2023-01-09T21:15:50.576Z,6.6
2023-01-09T21:17:52.228Z,6.6
2023-01-09T21:19:57.156Z,6.6
2023-01-09T21:21:58.827Z,6.7
2023-01-09T21:24:00.684Z,6.6
2023-01-09T21:28:30.762Z,6.8
2023-01-09T21:30:32.440Z,6.7
2023-01-09T21:32:37.353Z,6.7
2023-01-09T21:36:40.727Z,6.6
2023-01-09T21:38:42.368Z,6.8
2023-01-09T21:40:44.013Z,6.6
2023-01-09T21:46:52.316Z,6.6
2023-01-09T21:48:53.914Z,6.5
2023-01-09T21:52:57.273Z,6.4
2023-01-09T21:54:58.922Z,6.3
2023-01-09T21:57:00.636Z,6.3
2023-01-09T22:01:07.247Z,6.2
2023-01-09T22:03:08.837Z,6.2
2023-01-09T22:05:10.521Z,6.2
2023-01-09T22:07:12.192Z,6.2
2023-01-09T22:09:13.878Z,6.2
2023-01-09T22:11:16.262Z,6
2023-01-09T22:15:22.093Z,6
2023-01-09T22:17:23.716Z,6
2023-01-09T22:19:27.938Z,5.9
2023-01-09T22:20:27.832Z,6
2023-01-09T22:22:29.531Z,5.9
2023-01-09T22:24:31.123Z,5.9
2023-01-09T22:26:32.773Z,5.8
2023-01-09T22:30:39.320Z,5.9
2023-01-09T22:32:40.964Z,5.8
2023-01-09T22:34:42.604Z,5.8
2023-01-09T22:36:44.317Z,5.7
2023-01-09T22:38:45.938Z,5.7
2023-01-09T22:42:52.431Z,5.7
2023-01-09T22:44:54.097Z,5.5
2023-01-09T22:46:55.728Z,5.6
2023-01-09T22:48:57.342Z,5.5
2023-01-09T22:50:58.990Z,5.5
2023-01-09T22:53:00.635Z,5.6
2023-01-09T22:55:02.288Z,5.6
2023-01-09T22:57:07.123Z,5.5
2023-01-09T22:59:08.765Z,5.6
2023-01-09T23:03:13.598Z,5.6
2023-01-09T23:05:15.154Z,5.7
2023-01-09T23:11:23.316Z,5.6
2023-01-09T23:16:29.021Z,5.8
2023-01-09T23:18:30.642Z,5.6
2023-01-09T23:20:32.252Z,5.7
2023-01-09T23:22:33.895Z,5.6
2023-01-09T23:24:38.763Z,5.6
2023-01-09T23:26:40.400Z,5.7
2023-01-09T23:28:42.023Z,5.6
2023-01-09T23:30:43.650Z,5.6
2023-01-09T23:32:45.275Z,5.7
2023-01-09T23:34:46.894Z,5.6
2023-01-09T23:36:48.661Z,5.6
2023-01-09T23:38:53.397Z,5.9
2023-01-09T23:40:55.039Z,5.8
2023-01-09T23:42:56.658Z,5.8
2023-01-09T23:49:01.570Z,5.7
2023-01-09T23:51:03.189Z,5.6
2023-01-09T23:53:08.058Z,5.7
2023-01-09T23:57:11.327Z,5.7
2023-01-09T23:59:12.944Z,5.7
